createdAt,value
2019-02-26T00:01:05.978Z,65.67
2019-02-26T00:03:55.669Z,61.08
2019-02-26T00:06:47.163Z,72.72
2019-02-26T00:09:35.514Z,69.65
2019-02-26T00:12:26.455Z,62.25
2019-02-26T00:15:16.235Z,66.20
2019-02-26T00:18:07.520Z,65.00
2019-02-26T00:20:58.450Z,65.42
2019-02-26T00:23:48.719Z,63.23
2019-02-26T00:26:38.576Z,72.03
2019-02-26T00:29:29.840Z,72.90
2019-02-26T00:32:19.365Z,62.65
2019-02-26T00:35:09.481Z,60.65
2019-02-26T00:37:58.684Z,59.33
2019-02-26T00:40:47.940Z,59.13
2019-02-26T00:43:37.047Z,64.22
2019-02-26T00:46:28.496Z,64.32
2019-02-26T00:49:19.093Z,65.12
2019-02-26T00:52:08.684Z,65.65
2019-02-26T00:55:00.014Z,71.53
2019-02-26T00:57:49.458Z,71.10
2019-02-26T01:00:38.762Z,70.32
2019-02-26T01:03:27.895Z,65.95
2019-02-26T01:06:16.603Z,57.00
2019-02-26T01:09:09.343Z,69.00
2019-02-26T01:11:58.614Z,58.95
2019-02-26T01:14:48.182Z,65.25
2019-02-26T01:17:39.967Z,61.75
2019-02-26T01:20:30.214Z,68.42
2019-02-26T01:23:21.598Z,76.35
2019-02-26T01:26:12.140Z,68.17
2019-02-26T01:29:01.489Z,66.22
2019-02-26T01:31:51.077Z,69.58
2019-02-26T01:34:40.563Z,69.30
2019-02-26T01:37:32.082Z,70.62
2019-02-26T01:40:23.538Z,70.80
2019-02-26T01:43:11.943Z,64.00
2019-02-26T01:46:01.628Z,63.55
2019-02-26T01:48:50.803Z,64.95
2019-02-26T01:51:39.984Z,63.42
2019-02-26T01:54:30.509Z,67.22
2019-02-26T01:57:19.408Z,66.87
2019-02-26T02:00:19.779Z,69.62
2019-02-26T02:03:09.392Z,71.15
2019-02-26T02:05:58.179Z,77.87
2019-02-26T02:08:48.269Z,66.87
2019-02-26T02:11:38.042Z,68.45
2019-02-26T02:14:28.956Z,67.53
2019-02-26T02:17:17.971Z,78.83
2019-02-26T02:20:18.080Z,70.25
2019-02-26T02:23:05.365Z,62.13
2019-02-26T02:25:59.771Z,67.25
2019-02-26T02:28:46.455Z,63.40
2019-02-26T02:31:37.704Z,68.90
2019-02-26T02:34:29.422Z,66.42
2019-02-26T02:37:18.581Z,72.42
2019-02-26T02:40:11.886Z,67.78
2019-02-26T02:43:04.471Z,61.40
2019-02-26T02:45:55.131Z,66.75
2019-02-26T02:48:43.247Z,60.78
2019-02-26T02:51:34.594Z,65.17
2019-02-26T02:54:23.626Z,70.15
2019-02-26T02:57:13.597Z,72.15
2019-02-26T03:00:02.970Z,70.57
2019-02-26T03:02:53.781Z,65.42
2019-02-26T03:05:45.789Z,65.92
2019-02-26T03:08:34.430Z,62.27
2019-02-26T03:11:23.477Z,65.03
2019-02-26T03:14:13.830Z,64.12
2019-02-26T03:17:02.987Z,72.62
2019-02-26T03:19:55.837Z,64.10
2019-02-26T03:22:46.666Z,65.30
2019-02-26T03:25:34.553Z,61.90
2019-02-26T03:28:24.165Z,68.22
2019-02-26T03:31:12.880Z,64.12
2019-02-26T03:34:08.771Z,67.70
2019-02-26T03:36:53.028Z,68.67
2019-02-26T03:39:41.643Z,61.25
2019-02-26T03:42:30.390Z,66.62
2019-02-26T03:45:23.862Z,64.20
2019-02-26T03:48:10.483Z,67.85
2019-02-26T03:51:01.300Z,72.10
2019-02-26T03:53:51.377Z,72.62
2019-02-26T03:56:40.694Z,71.05
2019-02-26T03:59:30.074Z,77.20
2019-02-26T04:02:20.848Z,65.60
2019-02-26T04:05:15.176Z,83.42
2019-02-26T04:08:05.084Z,66.53
2019-02-26T04:10:55.953Z,69.37
2019-02-26T04:13:45.996Z,65.05
2019-02-26T04:16:35.303Z,71.28
2019-02-26T04:19:26.801Z,69.87
2019-02-26T04:22:33.376Z,76.85
2019-02-26T04:25:29.999Z,61.55
2019-02-26T04:28:30.685Z,69.25
2019-02-26T04:32:09.555Z,68.22
2019-02-26T04:35:01.971Z,69.55
2019-02-26T04:38:18.124Z,61.18
2019-02-26T04:41:11.983Z,61.60
2019-02-26T04:44:09.783Z,64.77
2019-02-26T04:47:02.162Z,66.60
2019-02-26T04:49:50.279Z,66.02
2019-02-26T04:52:41.331Z,66.65
2019-02-26T04:55:34.930Z,67.80
2019-02-26T04:58:22.728Z,68.75
2019-02-26T05:01:13.422Z,62.85
2019-02-26T05:04:02.828Z,66.67
2019-02-26T05:06:52.513Z,70.15
2019-02-26T05:09:41.866Z,62.95
2019-02-26T05:12:33.988Z,64.77
2019-02-26T05:15:23.296Z,69.12
2019-02-26T05:18:12.353Z,64.97
2019-02-26T05:21:02.757Z,63.87
2019-02-26T05:23:52.409Z,68.70
2019-02-26T05:26:42.376Z,68.80
2019-02-26T05:29:31.796Z,67.53
2019-02-26T05:32:21.900Z,65.45
2019-02-26T05:35:12.151Z,67.97
2019-02-26T05:38:06.071Z,67.92
2019-02-26T05:40:55.664Z,63.08
2019-02-26T05:43:49.447Z,67.92
2019-02-26T05:46:35.589Z,64.87
2019-02-26T05:49:24.659Z,58.80
2019-02-26T05:52:14.036Z,63.65
2019-02-26T05:55:03.426Z,66.42
2019-02-26T05:57:52.636Z,69.87
2019-02-26T06:00:42.056Z,63.08
2019-02-26T06:03:31.539Z,65.92
2019-02-26T06:06:20.793Z,69.87
2019-02-26T06:09:09.851Z,66.37
2019-02-26T06:11:58.917Z,62.30
2019-02-26T06:14:48.197Z,64.10
2019-02-26T06:17:40.587Z,73.02
2019-02-26T06:20:31.345Z,65.17
2019-02-26T06:23:19.717Z,62.88
2019-02-26T06:26:13.993Z,61.85
2019-02-26T06:29:00.680Z,64.27
2019-02-26T06:31:50.152Z,63.05
2019-02-26T06:34:38.850Z,64.50
2019-02-26T06:37:29.165Z,65.78
2019-02-26T06:40:19.085Z,65.83
2019-02-26T06:43:08.252Z,63.23
2019-02-26T06:45:57.731Z,64.95
2019-02-26T06:48:46.957Z,63.58
2019-02-26T06:51:35.435Z,70.72
2019-02-26T06:54:26.635Z,62.95
2019-02-26T06:57:15.067Z,62.43
2019-02-26T07:00:09.069Z,62.40
2019-02-26T07:03:01.988Z,58.33
2019-02-26T07:05:48.595Z,55.80
2019-02-26T07:08:38.029Z,57.05
2019-02-26T07:11:28.122Z,60.63
2019-02-26T07:14:17.435Z,57.73
2019-02-26T07:17:06.244Z,54.05
2019-02-26T07:19:57.309Z,59.45
2019-02-26T07:22:48.599Z,65.17
2019-02-26T07:25:39.048Z,56.60
2019-02-26T07:28:27.114Z,54.80
2019-02-26T07:31:16.220Z,56.50
2019-02-26T07:34:05.881Z,59.90
2019-02-26T07:36:54.903Z,63.42
2019-02-26T07:39:45.059Z,63.00
2019-02-26T07:42:35.033Z,67.00
2019-02-26T07:45:27.316Z,63.23
2019-02-26T07:48:18.588Z,66.12
2019-02-26T07:51:06.176Z,64.12
2019-02-26T07:53:56.515Z,62.13
2019-02-26T07:56:46.331Z,67.62
2019-02-26T07:59:36.953Z,66.72
2019-02-26T08:02:27.765Z,69.77
2019-02-26T08:05:18.727Z,65.87
2019-02-26T08:08:06.971Z,66.72
2019-02-26T08:10:56.195Z,69.53
2019-02-26T08:13:45.161Z,67.12
2019-02-26T08:16:34.425Z,66.62
2019-02-26T08:19:29.492Z,67.17
2019-02-26T08:22:14.263Z,73.05
2019-02-26T08:25:04.071Z,67.17
2019-02-26T08:27:54.043Z,71.05
2019-02-26T08:30:45.212Z,70.87
2019-02-26T08:33:34.104Z,73.85
2019-02-26T08:36:23.505Z,68.20
2019-02-26T08:39:15.014Z,66.92
2019-02-26T08:42:10.336Z,71.55
2019-02-26T08:44:59.258Z,70.57
2019-02-26T08:47:48.156Z,78.28
2019-02-26T08:50:39.068Z,67.97
2019-02-26T08:53:29.023Z,73.75
2019-02-26T08:56:18.915Z,75.17
2019-02-26T08:59:08.328Z,73.95
2019-02-26T09:01:57.911Z,67.50
2019-02-26T09:04:47.802Z,66.77
2019-02-26T09:07:38.574Z,74.72
2019-02-26T09:10:28.242Z,70.70
2019-02-26T09:13:18.750Z,73.97
2019-02-26T09:16:08.379Z,78.62
2019-02-26T09:18:57.712Z,74.32
2019-02-26T09:21:47.779Z,73.95
2019-02-26T09:24:37.481Z,72.90
2019-02-26T09:27:27.209Z,61.80
2019-02-26T09:30:21.143Z,66.45
2019-02-26T09:33:11.157Z,69.97
2019-02-26T09:36:01.102Z,64.65
2019-02-26T09:38:51.465Z,70.32
2019-02-26T09:41:44.929Z,70.12
2019-02-26T09:44:33.980Z,71.87
2019-02-26T09:47:26.167Z,68.87
2019-02-26T09:50:17.558Z,68.07
2019-02-26T09:53:06.593Z,66.20
2019-02-26T09:55:56.019Z,67.53
2019-02-26T09:58:46.514Z,64.53
2019-02-26T10:01:37.714Z,62.70
2019-02-26T10:04:26.992Z,65.30
2019-02-26T10:07:17.246Z,69.00
2019-02-26T10:10:14.123Z,66.80
2019-02-26T10:13:04.813Z,64.55
2019-02-26T10:15:58.258Z,63.05
2019-02-26T10:18:46.827Z,61.77
2019-02-26T10:21:37.533Z,66.15
2019-02-26T10:24:29.743Z,61.37
2019-02-26T10:27:22.330Z,57.00
2019-02-26T10:30:20.038Z,60.75
2019-02-26T10:33:09.302Z,58.92
2019-02-26T10:35:58.148Z,56.37
2019-02-26T10:38:47.011Z,74.53
2019-02-26T10:41:37.428Z,56.95
2019-02-26T10:44:27.426Z,62.20
2019-02-26T10:47:16.369Z,57.40
2019-02-26T10:50:13.059Z,57.10
2019-02-26T10:53:09.535Z,56.98
2019-02-26T10:55:53.951Z,58.90
2019-02-26T10:58:43.163Z,59.93
2019-02-26T11:01:33.677Z,58.05
2019-02-26T11:04:34.259Z,52.80
2019-02-26T11:07:14.859Z,58.65
2019-02-26T11:10:06.775Z,62.00
2019-02-26T11:12:57.057Z,58.60
2019-02-26T11:15:48.860Z,54.15
2019-02-26T11:18:39.865Z,58.90
2019-02-26T11:21:28.611Z,71.47
2019-02-26T11:24:17.743Z,53.40
2019-02-26T11:27:06.598Z,58.73
2019-02-26T11:29:57.812Z,52.40
2019-02-26T11:32:46.654Z,50.05
2019-02-26T11:35:35.847Z,45.12
2019-02-26T11:38:25.004Z,56.37
2019-02-26T11:41:14.248Z,45.70
2019-02-26T11:44:07.183Z,45.95
2019-02-26T11:46:56.285Z,49.60
2019-02-26T11:49:46.704Z,48.13
2019-02-26T11:52:36.427Z,42.58
2019-02-26T11:55:29.177Z,43.65
2019-02-26T11:58:19.887Z,47.27
2019-02-26T12:01:08.707Z,41.68
2019-02-26T12:04:03.224Z,51.98
2019-02-26T12:06:48.767Z,51.33
2019-02-26T12:09:40.558Z,47.23
2019-02-26T12:12:30.935Z,47.60
2019-02-26T12:15:19.471Z,41.02
2019-02-26T12:18:10.143Z,47.15
2019-02-26T12:21:00.699Z,41.53
2019-02-26T12:23:50.583Z,44.93
2019-02-26T12:26:42.313Z,39.03
2019-02-26T12:29:30.722Z,42.25
2019-02-26T12:32:22.331Z,39.20
2019-02-26T12:35:12.068Z,56.88
2019-02-26T12:38:17.545Z,49.80
2019-02-26T12:40:53.406Z,45.00
2019-02-26T12:43:46.203Z,50.23
2019-02-26T12:46:33.826Z,43.13
2019-02-26T12:49:22.797Z,41.13
2019-02-26T12:52:11.978Z,46.18
2019-02-26T12:55:04.301Z,37.75
2019-02-26T12:57:52.795Z,39.83
2019-02-26T13:00:42.288Z,39.27
2019-02-26T13:03:31.729Z,40.73
2019-02-26T13:06:22.826Z,39.78
2019-02-26T13:09:12.932Z,42.17
2019-02-26T13:12:02.906Z,48.20
2019-02-26T13:14:54.579Z,45.58
2019-02-26T13:17:45.203Z,47.43
2019-02-26T13:20:34.199Z,45.23
2019-02-26T13:23:22.943Z,44.63
2019-02-26T13:26:14.412Z,47.13
2019-02-26T13:29:02.939Z,47.35
2019-02-26T13:31:56.484Z,41.70
2019-02-26T13:34:42.771Z,41.68
2019-02-26T13:37:35.541Z,41.18
2019-02-26T13:40:25.180Z,39.80
2019-02-26T13:43:14.547Z,45.45
2019-02-26T13:46:03.361Z,46.40
2019-02-26T13:48:53.071Z,39.73
2019-02-26T13:51:41.843Z,48.02
2019-02-26T13:54:31.121Z,48.28
2019-02-26T13:57:20.505Z,46.08
2019-02-26T14:00:15.551Z,54.40
2019-02-26T14:03:04.894Z,46.13
2019-02-26T14:05:53.717Z,48.68
2019-02-26T14:08:42.993Z,53.52
2019-02-26T15:55:33.418Z,56.63
2019-02-26T15:58:22.650Z,53.68
2019-02-26T16:01:12.862Z,56.80
2019-02-26T16:04:02.735Z,50.58
2019-02-26T16:06:52.248Z,62.60
2019-02-26T16:09:41.718Z,58.80
2019-02-26T16:12:30.798Z,57.93
2019-02-26T16:15:20.566Z,63.60
2019-02-26T16:18:09.129Z,59.03
2019-02-26T16:20:58.177Z,65.72
2019-02-26T16:23:47.112Z,65.67
2019-02-26T16:26:38.441Z,57.40
2019-02-26T16:29:27.715Z,58.78
2019-02-26T16:32:16.896Z,62.33
2019-02-26T16:35:06.460Z,64.35
2019-02-26T16:37:56.145Z,63.92
2019-02-26T16:40:45.127Z,66.35
2019-02-26T16:43:34.380Z,68.22
2019-02-26T16:46:23.431Z,63.98
2019-02-26T16:49:12.722Z,63.15
2019-02-26T16:52:01.895Z,71.53
2019-02-26T16:54:50.835Z,70.60
2019-02-26T16:57:40.024Z,63.20
2019-02-26T17:00:33.132Z,71.72
2019-02-26T17:03:22.327Z,64.17
2019-02-26T17:06:11.268Z,66.57
2019-02-26T17:09:00.477Z,63.15
2019-02-26T17:11:49.539Z,59.63
2019-02-26T17:14:38.835Z,63.78
2019-02-26T17:17:28.080Z,63.65
2019-02-26T17:20:17.033Z,61.45
2019-02-26T17:23:06.376Z,62.10
2019-02-26T17:25:55.491Z,57.73
2019-02-26T17:28:44.637Z,64.10
2019-02-26T17:31:34.109Z,62.03
2019-02-26T17:34:23.672Z,66.15
2019-02-26T17:37:12.612Z,67.17
2019-02-26T17:40:03.281Z,67.15
2019-02-26T17:42:53.678Z,62.83
2019-02-26T17:45:43.323Z,70.60
2019-02-26T17:48:43.051Z,65.92
2019-02-26T17:51:23.770Z,63.68
2019-02-26T17:54:12.667Z,64.07
2019-02-26T17:57:01.868Z,64.40
2019-02-26T17:59:52.753Z,75.47
2019-02-26T18:02:41.988Z,70.85
2019-02-26T18:05:31.405Z,61.55
2019-02-26T18:08:20.532Z,69.90
2019-02-26T18:11:09.936Z,71.33
2019-02-26T18:14:00.219Z,70.12
2019-02-26T18:16:50.278Z,67.75
2019-02-26T18:19:39.598Z,70.17
2019-02-26T18:22:28.159Z,70.72
2019-02-26T18:25:20.675Z,79.97
2019-02-26T18:28:09.506Z,58.17
2019-02-26T18:30:58.908Z,68.80
2019-02-26T18:33:48.282Z,71.72
2019-02-26T18:36:37.433Z,69.72
2019-02-26T18:39:27.072Z,70.05
2019-02-26T18:42:16.378Z,67.58
2019-02-26T18:45:09.759Z,76.35
2019-02-26T18:47:59.025Z,73.17
2019-02-26T18:50:48.001Z,77.17
2019-02-26T18:53:37.349Z,76.75
2019-02-26T18:56:26.627Z,67.62
2019-02-26T18:59:15.692Z,72.37
2019-02-26T19:02:04.729Z,69.45
2019-02-26T19:04:54.332Z,75.40
2019-02-26T19:07:43.701Z,82.72
2019-02-26T19:10:32.676Z,71.15
2019-02-26T19:13:21.645Z,73.55
2019-02-26T19:16:11.004Z,76.10
2019-02-26T19:18:59.587Z,76.90
2019-02-26T19:21:48.701Z,77.95
2019-02-26T19:24:38.293Z,70.42
2019-02-26T19:27:26.897Z,74.70
2019-02-26T19:30:20.865Z,64.10
2019-02-26T19:33:10.005Z,71.37
2019-02-26T19:35:59.723Z,71.90
2019-02-26T19:38:49.037Z,64.32
2019-02-26T19:41:38.225Z,68.05
2019-02-26T19:44:27.807Z,94.67
2019-02-26T19:47:16.907Z,71.57
2019-02-26T19:50:11.838Z,63.30
2019-02-26T19:53:02.449Z,64.92
2019-02-26T19:55:53.121Z,67.53
2019-02-26T19:58:41.959Z,74.37
2019-02-26T20:01:31.310Z,75.87
2019-02-26T20:04:20.495Z,83.10
2019-02-26T20:07:08.946Z,79.65
2019-02-26T20:09:58.630Z,79.32
2019-02-26T20:12:48.554Z,82.05
2019-02-26T20:15:37.646Z,74.30
2019-02-26T20:18:27.066Z,84.60
2019-02-26T20:21:16.827Z,83.87
2019-02-26T20:24:07.575Z,75.70
2019-02-26T20:26:56.766Z,77.27
2019-02-26T20:29:46.454Z,70.35
2019-02-26T20:32:36.061Z,72.60
2019-02-26T20:35:26.011Z,67.27
2019-02-26T20:38:16.859Z,64.62
2019-02-26T20:41:06.186Z,69.62
2019-02-26T20:43:55.645Z,78.75
2019-02-26T20:46:45.551Z,64.50
2019-02-26T20:49:35.244Z,74.87
2019-02-26T20:52:24.585Z,67.97
2019-02-26T20:55:23.595Z,62.30
2019-02-26T20:58:12.827Z,89.17
2019-02-26T21:01:02.438Z,78.95
2019-02-26T21:03:51.303Z,83.95
2019-02-26T21:06:40.672Z,83.25
2019-02-26T21:09:29.510Z,74.25
2019-02-26T21:12:20.312Z,89.67
2019-02-26T21:15:25.173Z,77.25
2019-02-26T21:18:13.978Z,84.87
2019-02-26T21:21:03.304Z,101.38
2019-02-26T21:23:52.321Z,114.20
2019-02-26T21:26:41.847Z,101.30
2019-02-26T21:29:30.708Z,99.65
2019-02-26T21:32:19.672Z,97.75
2019-02-26T21:35:10.752Z,105.20
2019-02-26T21:37:59.817Z,101.15
2019-02-26T21:40:51.927Z,100.25
2019-02-26T21:43:39.683Z,68.92
2019-02-26T21:46:28.870Z,97.00
2019-02-26T21:49:17.837Z,85.57
2019-02-26T21:52:08.940Z,89.90
2019-02-26T21:55:00.408Z,100.38
2019-02-26T21:57:48.616Z,103.70
2019-02-26T22:00:39.019Z,92.85
2019-02-26T22:03:29.105Z,69.58
2019-02-26T22:06:18.245Z,80.57
2019-02-26T22:09:07.321Z,67.65
2019-02-26T22:11:56.603Z,85.20
2019-02-26T22:14:45.322Z,87.82
2019-02-26T22:17:35.039Z,58.68
2019-02-26T22:20:35.809Z,61.48
2019-02-26T22:23:15.316Z,60.05
2019-02-26T22:26:04.346Z,69.90
2019-02-26T22:28:53.856Z,65.17
2019-02-26T22:31:42.722Z,86.08
2019-02-26T22:34:31.664Z,76.25
2019-02-26T22:37:21.054Z,87.85
2019-02-26T22:40:12.836Z,78.78
2019-02-26T22:43:02.048Z,67.60
2019-02-26T22:45:50.603Z,96.15
2019-02-26T22:48:39.707Z,80.12
2019-02-26T22:51:28.644Z,103.60
2019-02-26T22:54:17.485Z,77.20
2019-02-26T22:57:06.245Z,63.10
2019-02-26T22:59:55.153Z,68.42
2019-02-26T23:02:44.474Z,60.95
2019-02-26T23:05:33.205Z,73.35
2019-02-26T23:08:22.599Z,99.13
2019-02-26T23:11:13.499Z,86.65
2019-02-26T23:14:04.978Z,69.75
2019-02-26T23:16:54.296Z,76.35
2019-02-26T23:19:43.466Z,83.80
2019-02-26T23:22:32.394Z,59.05
2019-02-26T23:25:21.801Z,79.30
2019-02-26T23:28:10.883Z,65.65
2019-02-26T23:31:00.457Z,85.30
2019-02-26T23:33:49.817Z,87.02
2019-02-26T23:36:38.844Z,78.02
2019-02-26T23:39:28.661Z,61.77
2019-02-26T23:42:17.772Z,63.42
2019-02-26T23:45:12.734Z,60.38
2019-02-26T23:48:01.902Z,75.03
2019-02-26T23:50:51.574Z,64.27
2019-02-26T23:53:40.727Z,62.45
2019-02-26T23:56:29.868Z,59.45
2019-02-26T23:59:18.732Z,66.72
